Time;durP1;ratioP1;P1;durP2;ratioP2;P2;SDS_P1;SDS_P2;PMS_P1;PMS_P2;Temp;Humidity;BMP_temperature;BMP_pressure;BME280_temperature;BME280_humidity;BME280_pressure;Samples;Min_cycle;Max_cycle;Signal;HPM_P1;HPM_P2
2022/11/26 00:02:19;;;;;;;2.50;1.38;;;;;;;6.93;100.00;102057.72;4945950;28;20078;-78
2022/11/26 00:04:47;;;;;;;2.90;1.73;;;;;;;7.02;100.00;102065.16;4948073;28;20458;-77
2022/11/26 00:07:21;;;;;;;1.77;1.38;;;;;;;7.04;100.00;102068.72;4944125;28;20058;-78
2022/11/26 00:09:53;;;;;;;2.92;1.10;;;;;;;7.03;100.00;102064.34;4950182;28;20409;-79
2022/11/26 00:12:24;;;;;;;3.50;1.58;;;;;;;7.00;100.00;102072.78;4948415;28;20055;-76
2022/11/26 00:14:53;;;;;;;3.42;1.25;;;;;;;6.95;100.00;102068.13;4940256;28;20102;-78
2022/11/26 00:17:23;;;;;;;2.05;1.40;;;;;;;6.95;100.00;102074.16;4952895;28;20048;-76
2022/11/26 00:19:52;;;;;;;1.98;1.38;;;;;;;6.96;100.00;102075.94;4935993;28;20098;-79
2022/11/26 00:22:25;;;;;;;1.83;1.20;;;;;;;7.00;100.00;102087.34;4934888;28;20111;-77
2022/11/26 00:24:55;;;;;;;2.50;1.23;;;;;;;6.98;100.00;102088.91;4947168;28;20049;-77
2022/11/26 00:27:27;;;;;;;1.55;1.17;;;;;;;6.96;100.00;102090.50;4946594;28;20047;-78
2022/11/26 00:29:56;;;;;;;2.13;1.15;;;;;;;6.94;100.00;102092.97;4946088;28;20051;-76
2022/11/26 00:32:28;;;;;;;1.23;0.95;;;;;;;6.93;100.00;102097.22;4944288;28;20620;-77
2022/11/26 00:34:57;;;;;;;1.35;1.25;;;;;;;6.95;100.00;102099.91;4948760;28;20527;-78
2022/11/26 00:37:29;;;;;;;1.60;1.08;;;;;;;6.95;100.00;102097.31;4951254;28;20079;-78
2022/11/26 00:39:58;;;;;;;1.83;1.08;;;;;;;6.97;100.00;102113.75;4953828;28;20048;-79
2022/11/26 00:42:27;;;;;;;1.25;0.70;;;;;;;6.97;100.00;102100.00;4955237;28;20047;-78
2022/11/26 00:44:56;;;;;;;1.92;0.80;;;;;;;6.98;100.00;102100.09;4954689;28;20047;-76
2022/11/26 00:47:27;;;;;;;2.08;1.00;;;;;;;7.00;100.00;102100.19;4953990;28;20240;-78
2022/11/26 00:49:55;;;;;;;1.15;0.52;;;;;;;7.02;100.00;102098.63;4948536;28;20051;-78
2022/11/26 00:52:30;;;;;;;1.60;0.90;;;;;;;7.04;100.00;102099.63;4948612;28;20096;-80
2022/11/26 00:54:59;;;;;;;1.00;0.50;;;;;;;7.04;100.00;102105.63;4948565;28;20070;-79
2022/11/26 00:57:27;;;;;;;1.45;0.52;;;;;;;7.03;100.00;102095.25;4950684;28;20054;-81
2022/11/26 00:59:56;;;;;;;0.90;0.50;;;;;;;7.03;100.00;102097.81;4941265;28;20066;-80
2022/11/26 01:02:26;;;;;;;1.40;1.08;;;;;;;7.03;100.00;102109.03;4946572;28;20043;-78
2022/11/26 01:04:55;;;;;;;4.40;1.08;;;;;;;7.03;100.00;102103.88;4947918;28;20413;-80
2022/11/26 01:07:24;;;;;;;1.17;0.82;;;;;;;7.04;100.00;102107.34;4942817;28;20561;-77
2022/11/26 01:09:53;;;;;;;1.48;1.20;;;;;;;7.04;100.00;102109.91;4949938;28;20054;-77
2022/11/26 01:12:21;;;;;;;1.50;0.93;;;;;;;7.02;100.00;102114.06;4945489;28;20047;-77
2022/11/26 01:14:50;;;;;;;5.68;1.05;;;;;;;6.99;100.00;102111.28;4948143;28;20047;-77
2022/11/26 01:17:19;;;;;;;1.13;0.80;;;;;;;6.95;100.00;102120.47;4943725;28;20079;-77
2022/11/26 01:19:50;;;;;;;1.67;1.30;;;;;;;6.93;100.00;102125.50;4950456;28;20055;-78
2022/11/26 01:22:22;;;;;;;1.45;1.25;;;;;;;6.91;100.00;102124.50;4945699;28;20047;-79
2022/11/26 01:24:51;;;;;;;1.87;1.03;;;;;;;6.92;100.00;102130.59;4942112;28;20599;-78
2022/11/26 01:27:21;;;;;;;2.40;0.98;;;;;;;6.95;100.00;102142.75;4948107;28;20823;-77
2022/11/26 01:29:50;;;;;;;2.35;1.30;;;;;;;6.98;100.00;102153.25;4948552;28;20657;-76
2022/11/26 01:32:19;;;;;;;3.50;2.17;;;;;;;7.00;100.00;102164.53;4947333;28;20595;-77
2022/11/26 01:34:49;;;;;;;2.55;1.58;;;;;;;7.03;100.00;102169.88;4947905;28;20051;-77
2022/11/26 01:37:18;;;;;;;1.50;1.30;;;;;;;7.08;100.00;102169.41;4947179;28;20415;-78
2022/11/26 01:39:47;;;;;;;2.47;1.42;;;;;;;7.11;100.00;102161.00;4952680;28;20454;-78
2022/11/26 01:42:26;;;;;;;3.38;2.13;;;;;;;7.12;100.00;102162.75;4948377;28;20051;-78
2022/11/26 01:44:55;;;;;;;2.78;1.30;;;;;;;7.12;100.00;102165.34;4944476;28;20710;-79
2022/11/26 01:47:26;;;;;;;1.88;1.30;;;;;;;7.13;100.00;102169.72;4954103;28;20055;-79
2022/11/26 01:50:32;;;;;;;2.15;1.30;;;;;;;7.10;100.00;102161.75;4953057;28;20484;-78
2022/11/26 01:53:05;;;;;;;1.92;1.27;;;;;;;7.13;100.00;102178.31;4948778;28;20529;-79
2022/11/26 01:55:38;;;;;;;2.78;1.10;;;;;;;7.13;100.00;102177.44;4950715;28;20538;-80
2022/11/26 01:58:11;;;;;;;1.77;1.23;;;;;;;7.16;100.00;102181.88;4953271;28;21016;-81
2022/11/26 02:00:40;;;;;;;0.77;0.30;;;;;;;7.16;100.00;102184.47;4947282;28;20046;-80
2022/11/26 02:03:10;;;;;;;0.82;0.32;;;;;;;7.15;100.00;102191.28;4952489;28;20052;-77
2022/11/26 02:05:43;;;;;;;1.05;0.30;;;;;;;7.15;100.00;102196.44;4943064;28;20043;-79
2022/11/26 02:08:14;;;;;;;0.38;0.20;;;;;;;7.15;100.00;102214.47;4946160;28;20050;-78
2022/11/26 02:10:43;;;;;;;2.20;0.50;;;;;;;7.14;100.00;102199.78;4945639;28;21195;-79
2022/11/26 02:13:13;;;;;;;1.00;0.40;;;;;;;7.14;100.00;102199.78;4944666;28;20138;-78
2022/11/26 02:15:50;;;;;;;0.35;0.28;;;;;;;7.14;100.00;102192.94;4947136;28;20051;-78
2022/11/26 02:18:21;;;;;;;0.50;0.40;;;;;;;7.12;100.00;102192.00;4944301;28;20100;-80
2022/11/26 02:20:57;;;;;;;0.52;0.30;;;;;;;7.10;100.00;102200.38;4940830;28;20437;-81
2022/11/26 02:24:00;;;;;;;0.85;0.43;;;;;;;7.06;100.00;102189.00;4944545;28;20049;-82
2022/11/26 02:26:58;;;;;;;0.15;0.10;;;;;;;6.95;100.00;102182.25;4941054;28;20059;-79
2022/11/26 02:29:41;;;;;;;0.82;0.15;;;;;;;7.01;100.00;102192.94;4941549;28;20053;-80
2022/11/26 02:32:15;;;;;;;0.20;0.00;;;;;;;6.96;100.00;102191.72;4946221;28;20134;-78
2022/11/26 02:34:49;;;;;;;0.45;0.20;;;;;;;6.96;100.00;102188.28;4939128;28;20059;-77
2022/11/26 02:37:23;;;;;;;0.22;0.15;;;;;;;6.95;100.00;102197.69;4934958;28;20058;-79
2022/11/26 02:39:52;;;;;;;0.25;0.10;;;;;;;6.95;100.00;102201.94;4950942;28;20046;-78
2022/11/26 02:42:26;;;;;;;0.35;0.00;;;;;;;6.95;100.00;102204.50;4943379;28;20051;-77
2022/11/26 02:44:58;;;;;;;0.47;0.10;;;;;;;6.93;100.00;102202.72;4942658;28;20073;-84
2022/11/26 02:47:29;;;;;;;0.57;0.13;;;;;;;6.85;100.00;102201.31;4946486;28;20683;-81
2022/11/26 02:50:01;;;;;;;0.10;0.10;;;;;;;6.79;100.00;102202.59;4946549;28;20062;-82
2022/11/26 02:52:33;;;;;;;0.52;0.28;;;;;;;6.80;100.00;102204.34;4936583;28;20411;-80
2022/11/26 02:55:06;;;;;;;0.00;0.00;;;;;;;6.75;100.00;102214.34;4947164;28;20098;-80
2022/11/26 02:57:40;;;;;;;0.10;0.00;;;;;;;6.73;100.00;102203.03;4946022;28;20081;-83
2022/11/26 03:00:12;;;;;;;0.08;0.00;;;;;;;6.70;100.00;102215.72;4944065;28;20051;-79
2022/11/26 03:02:46;;;;;;;0.03;0.00;;;;;;;6.70;100.00;102202.84;4947883;28;20605;-81
2022/11/26 03:05:17;;;;;;;0.47;0.03;;;;;;;6.69;100.00;102224.22;4953043;28;20051;-77
2022/11/26 03:07:49;;;;;;;0.20;0.10;;;;;;;6.73;100.00;102221.03;4949309;28;20520;-80
2022/11/26 03:10:19;;;;;;;0.10;0.10;;;;;;;6.77;100.00;102227.31;4946464;28;20614;-77
2022/11/26 03:12:48;;;;;;;2.42;0.20;;;;;;;6.80;100.00;102232.66;4938646;28;20066;-78
2022/11/26 03:15:19;;;;;;;0.10;0.08;;;;;;;6.83;100.00;102227.75;4939942;28;20073;-76
2022/11/26 03:17:48;;;;;;;0.10;0.10;;;;;;;6.86;100.00;102236.53;4950025;28;20706;-77
2022/11/26 03:20:17;;;;;;;0.40;0.20;;;;;;;6.87;100.00;102235.78;4947204;28;20043;-76
2022/11/26 03:22:46;;;;;;;0.10;0.10;;;;;;;6.84;100.00;102235.53;4951783;28;20058;-76
2022/11/26 03:25:15;;;;;;;0.20;0.20;;;;;;;6.82;100.00;102226.81;4947969;28;20058;-76
2022/11/26 03:27:44;;;;;;;0.10;0.08;;;;;;;6.80;100.00;102238.69;4954123;28;20779;-77
2022/11/26 03:30:13;;;;;;;0.50;0.40;;;;;;;6.75;100.00;102236.59;4943887;28;20051;-76
2022/11/26 03:32:44;;;;;;;0.20;0.20;;;;;;;6.77;100.00;102247.88;4946011;28;20051;-77
2022/11/26 03:35:13;;;;;;;0.17;0.17;;;;;;;6.77;100.00;102248.78;4949162;28;20057;-77
2022/11/26 03:37:42;;;;;;;0.20;0.20;;;;;;;6.79;100.00;102251.47;4951301;28;20054;-77
2022/11/26 03:40:11;;;;;;;0.70;0.20;;;;;;;6.81;100.00;102257.59;4948685;28;20753;-78
2022/11/26 03:42:40;;;;;;;0.30;0.20;;;;;;;6.84;100.00;102261.25;4937429;28;20102;-78
2022/11/26 03:45:10;;;;;;;1.08;0.30;;;;;;;6.85;100.00;102263.06;4943640;28;20454;-77
2022/11/26 03:47:39;;;;;;;0.20;0.13;;;;;;;6.87;100.00;102258.94;4943820;28;20051;-74
2022/11/26 03:50:10;;;;;;;0.45;0.20;;;;;;;6.88;100.00;102263.28;4946442;28;20047;-74
2022/11/26 03:52:39;;;;;;;1.25;0.40;;;;;;;6.87;100.00;102258.94;4951175;28;20130;-76
2022/11/26 03:55:09;;;;;;;0.70;0.30;;;;;;;6.86;100.00;102259.69;4947057;28;20054;-77
2022/11/26 03:57:38;;;;;;;0.70;0.30;;;;;;;6.82;100.00;102262.84;4947808;28;20146;-74
2022/11/26 04:00:09;;;;;;;0.63;0.20;;;;;;;6.69;100.00;102270.53;4950214;28;20051;-77
2022/11/26 04:02:38;;;;;;;0.43;0.30;;;;;;;6.58;100.00;102281.75;4950729;28;20042;-77
2022/11/26 04:05:09;;;;;;;0.45;0.30;;;;;;;6.54;100.00;102283.19;4943916;28;20067;-77
2022/11/26 04:07:38;;;;;;;0.60;0.30;;;;;;;6.57;100.00;102288.53;4947232;28;20043;-76
2022/11/26 04:10:07;;;;;;;1.05;0.30;;;;;;;6.59;100.00;102284.41;4947298;28;20057;-78
2022/11/26 04:12:36;;;;;;;0.50;0.30;;;;;;;6.59;100.00;102279.25;4949611;28;20047;-75
2022/11/26 04:15:06;;;;;;;0.88;0.50;;;;;;;6.52;100.00;102289.91;4941352;28;20063;-76
2022/11/26 04:17:34;;;;;;;0.22;0.20;;;;;;;6.43;100.00;102296.97;4945711;28;20561;-76
2022/11/26 04:20:03;;;;;;;0.38;0.30;;;;;;;6.40;100.00;102297.66;4944617;28;20054;-77
2022/11/26 04:22:34;;;;;;;1.38;0.73;;;;;;;6.41;100.00;102304.56;4940291;28;20521;-79
2022/11/26 04:25:02;;;;;;;1.48;0.85;;;;;;;6.43;100.00;102322.69;4943029;28;20055;-80
2022/11/26 04:27:31;;;;;;;1.80;0.70;;;;;;;6.41;100.00;102312.28;4950460;28;20051;-78
2022/11/26 04:30:00;;;;;;;1.13;0.73;;;;;;;6.38;100.00;102318.88;4940353;28;20056;-78
2022/11/26 04:32:28;;;;;;;1.83;0.75;;;;;;;6.32;100.00;102324.47;4941985;28;20134;-75
2022/11/26 04:34:57;;;;;;;1.25;0.50;;;;;;;6.32;100.00;102327.03;4950392;28;20066;-77
2022/11/26 04:37:26;;;;;;;0.98;0.50;;;;;;;6.32;100.00;102326.16;4945661;28;20051;-78
2022/11/26 04:39:56;;;;;;;2.45;0.68;;;;;;;6.31;100.00;102327.84;4955213;28;20058;-78
2022/11/26 04:42:25;;;;;;;3.53;0.80;;;;;;;6.27;100.00;102330.97;4944546;28;20097;-77
2022/11/26 04:44:54;;;;;;;1.42;0.70;;;;;;;6.21;100.00;102338.25;4946424;28;20073;-77
2022/11/26 04:47:22;;;;;;;0.88;0.55;;;;;;;6.16;100.00;102331.88;4944511;28;20044;-78
2022/11/26 04:49:51;;;;;;;1.45;0.60;;;;;;;6.14;100.00;102333.44;4944474;28;20059;-77
2022/11/26 04:52:20;;;;;;;1.75;0.80;;;;;;;6.13;100.00;102341.94;4947037;28;20089;-77
2022/11/26 04:54:48;;;;;;;2.75;1.33;;;;;;;6.11;100.00;102338.34;4949628;28;20541;-77
2022/11/26 04:57:19;;;;;;;4.65;1.80;;;;;;;6.07;100.00;102344.97;4942592;28;20062;-76
2022/11/26 04:59:47;;;;;;;3.30;2.15;;;;;;;6.06;100.00;102350.88;4950624;28;20051;-77
2022/11/26 05:02:16;;;;;;;1.52;1.00;;;;;;;6.02;100.00;102354.88;4947481;28;20062;-79
2022/11/26 05:04:45;;;;;;;2.25;1.25;;;;;;;5.99;100.00;102359.78;4946900;28;20528;-78
2022/11/26 05:07:13;;;;;;;1.45;0.82;;;;;;;5.95;100.00;102357.78;4947608;28;20094;-79
2022/11/26 05:09:42;;;;;;;2.08;1.05;;;;;;;5.91;100.00;102354.84;4949723;28;20055;-78
2022/11/26 05:12:11;;;;;;;3.15;1.20;;;;;;;5.86;100.00;102351.94;4948655;28;20506;-78
2022/11/26 05:14:42;;;;;;;2.78;1.20;;;;;;;5.86;100.00;102357.06;4948146;28;20059;-81
2022/11/26 05:17:10;;;;;;;5.45;1.90;;;;;;;5.82;100.00;102365.34;4946843;28;20052;-78
2022/11/26 05:19:46;;;;;;;3.60;2.30;;;;;;;5.79;100.00;102365.97;4946732;28;20058;-79
2022/11/26 05:22:14;;;;;;;8.65;1.85;;;;;;;5.79;100.00;102370.22;4949146;28;20045;-80
2022/11/26 05:24:43;;;;;;;9.95;2.60;;;;;;;5.77;100.00;102380.41;4952220;28;20054;-78
2022/11/26 05:27:12;;;;;;;5.75;2.80;;;;;;;5.77;100.00;102382.06;4950273;28;20607;-80
2022/11/26 05:29:42;;;;;;;11.07;4.38;;;;;;;5.73;100.00;102382.63;4949875;28;20519;-79
2022/11/26 05:32:11;;;;;;;7.78;3.78;;;;;;;5.75;100.00;102383.63;4942805;28;20056;-78
2022/11/26 05:34:40;;;;;;;6.50;3.40;;;;;;;5.76;100.00;102375.16;4939765;28;20051;-79
2022/11/26 05:37:08;;;;;;;16.75;3.95;;;;;;;5.74;100.00;102366.44;4951497;28;20534;-77
2022/11/26 05:39:37;;;;;;;10.65;4.10;;;;;;;5.74;100.00;102369.00;4957481;28;20039;-79
2022/11/26 05:42:06;;;;;;;6.22;3.35;;;;;;;5.70;100.00;102375.56;4946634;28;20055;-77
2022/11/26 05:44:35;;;;;;;14.20;4.10;;;;;;;5.60;100.00;102379.13;4943651;28;20047;-77
2022/11/26 05:47:05;;;;;;;5.53;2.78;;;;;;;5.51;100.00;102378.44;4942762;28;20055;-79
2022/11/26 05:49:34;;;;;;;11.32;3.95;;;;;;;5.43;100.00;102375.28;4944525;28;20514;-78
2022/11/26 05:52:03;;;;;;;8.25;3.83;;;;;;;5.43;100.00;102385.56;4948878;28;20053;-76
2022/11/26 05:54:31;;;;;;;8.38;3.40;;;;;;;5.40;100.00;102384.41;4948976;28;20063;-76
2022/11/26 05:57:00;;;;;;;10.32;4.18;;;;;;;5.36;100.00;102387.53;4947788;28;20126;-77
2022/11/26 05:59:29;;;;;;;6.53;3.00;;;;;;;5.36;100.00;102377.25;4948894;28;20050;-77
2022/11/26 06:01:58;;;;;;;6.50;2.88;;;;;;;5.33;100.00;102377.03;4941380;28;20047;-78
2022/11/26 06:04:28;;;;;;;10.70;2.95;;;;;;;5.33;100.00;102387.31;4953648;28;20091;-79
2022/11/26 06:06:56;;;;;;;7.40;3.22;;;;;;;5.34;100.00;102396.81;4945129;28;20417;-78
2022/11/26 06:09:25;;;;;;;6.07;2.15;;;;;;;5.33;100.00;102397.56;4950055;28;20058;-79
2022/11/26 06:11:54;;;;;;;7.72;2.97;;;;;;;5.32;100.00;102401.81;4953815;28;20082;-79
2022/11/26 06:14:23;;;;;;;7.65;2.38;;;;;;;5.32;100.00;102406.06;4960699;28;20489;-78
2022/11/26 06:16:51;;;;;;;7.32;3.20;;;;;;;5.31;100.00;102411.94;4950998;28;20051;-77
2022/11/26 06:19:20;;;;;;;9.82;4.00;;;;;;;5.29;100.00;102405.78;4948154;28;20574;-79
2022/11/26 06:21:57;;;;;;;9.75;4.03;;;;;;;5.27;100.00;102413.41;4951603;28;20083;-79
2022/11/26 06:24:26;;;;;;;5.95;3.58;;;;;;;5.25;100.00;102408.13;4953312;28;20055;-78
2022/11/26 06:26:54;;;;;;;8.85;4.47;;;;;;;5.24;100.00;102400.31;4951164;28;20054;-82
2022/11/26 06:29:23;;;;;;;7.20;3.40;;;;;;;5.22;100.00;102410.47;4955306;28;20047;-79
2022/11/26 06:31:52;;;;;;;6.88;4.03;;;;;;;5.21;100.00;102416.38;4949841;28;20043;-77
2022/11/26 06:34:20;;;;;;;7.53;4.00;;;;;;;5.19;100.00;102419.59;4944116;28;20407;-77
2022/11/26 06:36:49;;;;;;;8.23;4.10;;;;;;;5.11;100.00;102412.97;4947530;28;20046;-78
2022/11/26 06:39:20;;;;;;;7.88;4.28;;;;;;;5.08;100.00;102425.56;4947355;28;20051;-84
2022/11/26 06:41:48;;;;;;;9.43;3.97;;;;;;;5.02;100.00;102414.06;4948047;28;20050;-82
2022/11/26 06:44:17;;;;;;;9.20;4.55;;;;;;;5.09;100.00;102418.00;4949832;28;20066;-81
2022/11/26 06:46:46;;;;;;;8.35;3.92;;;;;;;5.09;100.00;102419.66;4948508;28;20110;-79
2022/11/26 06:49:14;;;;;;;6.80;3.75;;;;;;;5.10;100.00;102430.03;4948393;28;20530;-79
2022/11/26 06:51:43;;;;;;;5.43;2.65;;;;;;;5.10;100.00;102435.16;4950328;28;20047;-80
2022/11/26 06:54:12;;;;;;;6.63;3.28;;;;;;;5.09;100.00;102441.09;4947320;28;20538;-80
2022/11/26 06:56:42;;;;;;;5.88;2.90;;;;;;;5.07;100.00;102442.63;4948968;28;20051;-80
2022/11/26 06:59:11;;;;;;;9.10;2.88;;;;;;;5.08;100.00;102446.97;4946575;28;20893;-79
2022/11/26 07:01:40;;;;;;;6.22;3.42;;;;;;;5.06;100.00;102445.94;4946127;28;20047;-77
2022/11/26 07:04:10;;;;;;;6.13;2.70;;;;;;;5.00;100.00;102450.63;4950908;28;20062;-81
2022/11/26 07:06:39;;;;;;;9.55;3.08;;;;;;;4.98;100.00;102459.88;4945700;28;20134;-81
2022/11/26 07:09:09;;;;;;;7.25;2.67;;;;;;;4.97;100.00;102468.31;4953391;28;20051;-80
2022/11/26 07:11:39;;;;;;;5.30;2.13;;;;;;;4.94;100.00;102470.66;4952754;28;20126;-81
2022/11/26 07:14:10;;;;;;;3.67;2.35;;;;;;;4.93;100.00;102481.69;4946003;28;20059;-80
2022/11/26 07:16:38;;;;;;;3.92;2.17;;;;;;;4.90;100.00;102471.16;4951936;28;20489;-81
2022/11/26 07:19:07;;;;;;;4.28;1.75;;;;;;;4.87;100.00;102476.94;4954759;28;20047;-80
2022/11/26 07:21:36;;;;;;;3.80;2.25;;;;;;;4.88;100.00;102477.84;4947889;28;20138;-80
2022/11/26 07:24:05;;;;;;;6.05;1.48;;;;;;;4.89;100.00;102489.91;4947897;28;20073;-80
2022/11/26 07:26:33;;;;;;;3.05;1.40;;;;;;;4.89;100.00;102489.91;4948563;28;20355;-79
2022/11/26 07:29:02;;;;;;;5.63;1.98;;;;;;;4.90;100.00;102496.81;4944172;28;20090;-79
2022/11/26 07:31:33;;;;;;;2.17;0.80;;;;;;;4.92;100.00;102505.53;4943546;28;20055;-79
2022/11/26 07:34:01;;;;;;;1.60;1.00;;;;;;;4.90;100.00;102499.38;4945828;28;20060;-80
2022/11/26 07:36:31;;;;;;;4.20;1.45;;;;;;;4.90;100.00;102513.13;4944604;28;20062;-81
2022/11/26 07:39:01;;;;;;;2.92;1.17;;;;;;;4.91;100.00;102519.16;4943780;28;20050;-81
2022/11/26 07:41:31;;;;;;;1.88;0.90;;;;;;;4.91;100.00;102520.03;4944629;28;20043;-81
2022/11/26 07:43:59;;;;;;;3.05;1.45;;;;;;;4.94;100.00;102529.66;4941673;28;20057;-80
2022/11/26 07:46:28;;;;;;;2.05;1.20;;;;;;;4.94;100.00;102524.50;4941599;28;20043;-81
2022/11/26 07:48:59;;;;;;;3.63;1.35;;;;;;;4.93;100.00;102525.31;4947144;28;20043;-81
2022/11/26 07:51:29;;;;;;;1.98;1.13;;;;;;;4.88;100.00;102518.88;4947141;28;20057;-81
2022/11/26 07:53:59;;;;;;;0.93;0.80;;;;;;;4.95;100.00;102531.47;4947569;28;20109;-79
2022/11/26 07:56:28;;;;;;;1.75;0.88;;;;;;;4.97;100.00;102529.88;4947899;28;20085;-81
2022/11/26 07:58:57;;;;;;;1.20;0.80;;;;;;;4.96;100.00;102522.97;4946306;28;20571;-80
2022/11/26 08:01:28;;;;;;;2.60;1.40;;;;;;;5.00;100.00;102525.91;4946557;28;20102;-81
2022/11/26 08:04:00;;;;;;;3.85;1.08;;;;;;;5.01;100.00;102527.69;4948086;28;20512;-80
2022/11/26 08:06:30;;;;;;;5.53;1.70;;;;;;;5.01;100.00;102522.56;4945103;28;20056;-79
2022/11/26 08:09:01;;;;;;;3.40;1.73;;;;;;;4.95;100.00;102516.06;4952606;28;20444;-80
2022/11/26 08:11:31;;;;;;;4.82;1.48;;;;;;;4.91;100.00;102507.22;4947740;28;20050;-78
2022/11/26 08:14:01;;;;;;;2.10;1.38;;;;;;;4.87;100.00;102507.72;4954886;28;20105;-80
2022/11/26 08:16:30;;;;;;;4.70;1.70;;;;;;;4.89;100.00;102510.44;4952594;28;20047;-80
2022/11/26 08:19:02;;;;;;;3.92;1.20;;;;;;;4.90;100.00;102501.94;4943752;28;20047;-81
2022/11/26 08:21:31;;;;;;;3.20;1.30;;;;;;;4.97;100.00;102512.84;4951766;28;20050;-80
2022/11/26 08:24:00;;;;;;;3.83;1.92;;;;;;;4.99;100.00;102508.75;4948034;28;20086;-80
2022/11/26 08:26:29;;;;;;;3.17;1.73;;;;;;;5.02;100.00;102513.22;4943015;28;20054;-80
2022/11/26 08:28:59;;;;;;;6.93;1.70;;;;;;;5.06;100.00;102525.50;4954007;28;20075;-80
2022/11/26 08:31:28;;;;;;;4.30;1.85;;;;;;;5.06;100.00;102519.47;4954456;28;20047;-79
2022/11/26 08:34:00;;;;;;;4.50;2.08;;;;;;;5.05;100.00;102518.59;4950353;28;20059;-78
2022/11/26 08:36:29;;;;;;;4.95;2.08;;;;;;;5.03;100.00;102515.00;4949346;28;20046;-79
2022/11/26 08:38:58;;;;;;;4.75;2.22;;;;;;;5.02;100.00;102513.22;4949040;28;20043;-79
2022/11/26 08:41:28;;;;;;;5.68;2.28;;;;;;;5.03;100.00;102515.00;4946578;28;20048;-79
2022/11/26 08:43:56;;;;;;;5.00;2.50;;;;;;;5.03;100.00;102510.75;4944654;28;20051;-78
2022/11/26 08:46:25;;;;;;;6.60;2.65;;;;;;;5.04;100.00;102509.09;4940750;28;20054;-79
2022/11/26 08:49:04;;;;;;;3.72;2.20;;;;;;;5.07;100.00;102509.34;4950571;28;20051;-79
2022/11/26 08:51:32;;;;;;;3.55;1.70;;;;;;;5.09;100.00;102499.22;4950518;28;20142;-79
2022/11/26 08:54:07;;;;;;;4.97;2.45;;;;;;;5.04;100.00;102494.59;4945729;28;20052;-79
2022/11/26 08:56:43;;;;;;;6.35;2.47;;;;;;;5.00;100.00;102489.09;4952222;28;20054;-79
2022/11/26 08:59:11;;;;;;;7.70;2.47;;;;;;;5.02;100.00;102497.81;4955922;28;20055;-79
2022/11/26 09:01:40;;;;;;;3.55;1.42;;;;;;;5.04;100.00;102481.78;4953190;28;20053;-79
2022/11/26 09:04:11;;;;;;;7.55;2.45;;;;;;;5.07;100.00;102486.25;4954464;28;20069;-79
2022/11/26 09:06:39;;;;;;;5.20;2.67;;;;;;;5.08;100.00;102487.13;4950417;28;20059;-80
2022/11/26 09:09:16;;;;;;;4.95;2.42;;;;;;;5.10;100.00;102485.59;4953299;28;20081;-79
2022/11/26 09:11:48;;;;;;;3.42;2.05;;;;;;;5.07;100.00;102485.34;4951782;28;20513;-80
2022/11/26 09:14:18;;;;;;;5.55;2.42;;;;;;;5.09;100.00;102499.22;4949775;28;20537;-80
2022/11/26 09:16:47;;;;;;;3.45;1.88;;;;;;;5.10;100.00;102496.75;4948607;28;20191;-80
2022/11/26 09:19:18;;;;;;;6.75;2.40;;;;;;;5.11;100.00;102503.69;4950482;28;20062;-79
2022/11/26 09:21:47;;;;;;;6.28;2.90;;;;;;;5.15;100.00;102509.94;4954169;28;20057;-79
2022/11/26 09:24:16;;;;;;;9.80;3.45;;;;;;;5.16;100.00;102502.38;4952459;28;20497;-79
2022/11/26 09:26:47;;;;;;;4.82;2.60;;;;;;;5.15;100.00;102498.00;4952879;28;20538;-77
2022/11/26 09:29:17;;;;;;;8.23;3.42;;;;;;;5.09;100.00;102510.38;4951968;28;20098;-78
2022/11/26 09:31:46;;;;;;;5.40;3.13;;;;;;;5.04;100.00;102507.44;4945950;28;20052;-78
2022/11/26 09:34:17;;;;;;;6.82;3.72;;;;;;;5.04;100.00;102506.53;4953649;28;20050;-79
2022/11/26 09:36:46;;;;;;;6.20;2.83;;;;;;;5.07;100.00;102506.78;4948250;28;20059;-78
2022/11/26 09:39:15;;;;;;;5.68;2.70;;;;;;;5.03;100.00;102495.34;4953713;28;20662;-79
2022/11/26 09:41:51;;;;;;;4.60;2.58;;;;;;;5.07;100.00;102501.63;4948687;28;20052;-80
2022/11/26 09:44:41;;;;;;;5.80;2.55;;;;;;;5.17;100.00;102514.41;4955616;28;20078;-79
2022/11/26 09:47:14;;;;;;;5.65;2.47;;;;;;;5.18;100.00;102503.41;4954397;28;20058;-78
2022/11/26 09:49:56;;;;;;;7.28;2.85;;;;;;;5.15;100.00;102510.81;4947416;28;20051;-79
2022/11/26 09:52:29;;;;;;;6.03;2.78;;;;;;;5.17;100.00;102510.97;4951994;28;20061;-79
2022/11/26 09:55:12;;;;;;;5.40;3.75;;;;;;;5.20;100.00;102514.69;4951334;28;20059;-79
2022/11/26 09:57:44;;;;;;;8.13;2.95;;;;;;;5.22;100.00;102513.13;4953169;28;20051;-79
2022/11/26 10:00:25;;;;;;;5.75;2.58;;;;;;;5.27;100.00;102499.75;4947797;28;20537;-79
2022/11/26 10:02:55;;;;;;;4.70;3.13;;;;;;;5.27;100.00;102497.19;4949170;28;20053;-79
2022/11/26 10:05:41;;;;;;;5.03;2.63;;;;;;;5.25;100.00;102492.84;4952227;28;20055;-80
2022/11/26 10:08:24;;;;;;;7.72;2.70;;;;;;;5.27;100.00;102500.66;4953280;28;20047;-80
2022/11/26 10:10:57;;;;;;;4.30;1.88;;;;;;;5.31;100.00;102501.78;4949603;28;20052;-79
2022/11/26 10:13:33;;;;;;;5.60;2.70;;;;;;;5.33;100.00;102495.09;4952264;28;20114;-79
2022/11/26 10:16:10;;;;;;;5.93;2.75;;;;;;;5.35;100.00;102501.25;4944657;28;20056;-79
2022/11/26 10:18:47;;;;;;;3.22;2.30;;;;;;;5.36;100.00;102496.25;4953045;28;20064;-79
2022/11/26 10:21:23;;;;;;;4.80;2.70;;;;;;;5.36;100.00;102501.38;4943050;28;20557;-78
2022/11/26 10:23:57;;;;;;;3.20;2.25;;;;;;;5.30;100.00;102500.00;4951385;28;20054;-79
2022/11/26 10:26:30;;;;;;;4.90;2.47;;;;;;;5.29;100.00;102508.47;4952327;28;20047;-79
2022/11/26 10:29:15;;;;;;;5.38;2.80;;;;;;;5.28;100.00;102505.00;4950574;28;20058;-80
2022/11/26 10:31:47;;;;;;;4.85;2.13;;;;;;;5.27;100.00;102502.31;4951343;28;20050;-80
2022/11/26 10:34:19;;;;;;;6.18;2.75;;;;;;;5.29;100.00;102504.25;4943903;28;20055;-78
2022/11/26 10:36:50;;;;;;;4.65;2.42;;;;;;;5.30;100.00;102508.59;4949986;28;20059;-79
2022/11/26 10:39:20;;;;;;;4.95;2.30;;;;;;;5.31;100.00;102518.06;4942238;28;20524;-80
2022/11/26 10:41:49;;;;;;;5.68;2.83;;;;;;;5.33;100.00;102531.03;4948038;28;20051;-79
2022/11/26 10:44:32;;;;;;;4.25;2.00;;;;;;;5.36;100.00;102536.41;4945881;28;20659;-78
2022/11/26 10:47:20;;;;;;;4.80;2.53;;;;;;;5.34;100.00;102537.97;4947911;28;20051;-79
2022/11/26 10:49:49;;;;;;;3.22;1.90;;;;;;;5.38;100.00;102535.78;4950016;28;20050;-79
2022/11/26 10:52:22;;;;;;;3.72;2.33;;;;;;;5.31;100.00;102519.75;4948349;28;20055;-79
2022/11/26 10:55:18;;;;;;;4.38;2.72;;;;;;;5.40;100.00;102535.88;4951789;28;20047;-78
2022/11/26 10:57:52;;;;;;;7.45;2.13;;;;;;;5.38;100.00;102534.84;4952594;28;20058;-79
2022/11/26 11:00:40;;;;;;;6.50;1.60;;;;;;;5.36;100.00;102531.28;4953163;28;20058;-79
2022/11/26 11:03:21;;;;;;;4.90;2.03;;;;;;;5.39;100.00;102534.09;4954919;28;20055;-79
2022/11/26 11:05:50;;;;;;;2.60;1.33;;;;;;;5.40;100.00;102533.31;4950796;28;20067;-78
2022/11/26 11:08:30;;;;;;;2.70;1.88;;;;;;;5.43;100.00;102534.47;4952208;28;20055;-79
2022/11/26 11:11:01;;;;;;;3.60;2.05;;;;;;;5.46;100.00;102534.69;4947208;28;20122;-79
2022/11/26 11:13:41;;;;;;;5.70;1.92;;;;;;;5.46;100.00;102528.66;4947330;28;20055;-80
2022/11/26 11:16:11;;;;;;;4.25;2.35;;;;;;;5.41;100.00;102532.56;4948425;28;20059;-80
2022/11/26 11:18:50;;;;;;;4.65;1.65;;;;;;;5.34;100.00;102513.19;4949656;28;20050;-79
2022/11/26 11:21:21;;;;;;;5.13;1.77;;;;;;;5.40;100.00;102523.94;4950104;28;20047;-80
2022/11/26 11:23:51;;;;;;;2.97;1.90;;;;;;;5.40;100.00;102520.47;4949710;28;20130;-79
2022/11/26 11:26:23;;;;;;;5.20;2.40;;;;;;;5.42;100.00;102516.34;4950968;28;20085;-79
2022/11/26 11:28:54;;;;;;;4.90;2.17;;;;;;;5.47;100.00;102522.75;4956508;28;20067;-79
2022/11/26 11:31:23;;;;;;;7.97;2.80;;;;;;;5.53;100.00;102519.78;4944884;28;20051;-79
2022/11/26 11:33:53;;;;;;;5.03;1.98;;;;;;;5.53;100.00;102520.66;4952446;28;20062;-78
2022/11/26 11:36:27;;;;;;;4.38;2.22;;;;;;;5.54;100.00;102524.13;4951366;28;20058;-78
2022/11/26 11:38:59;;;;;;;3.80;2.05;;;;;;;5.57;100.00;102529.53;4942885;28;20047;-80
2022/11/26 11:41:36;;;;;;;2.78;1.58;;;;;;;5.61;100.00;102524.75;4949340;28;20049;-78
2022/11/26 11:44:15;;;;;;;2.78;1.77;;;;;;;5.57;100.00;102522.69;4954690;28;20046;-79